• Join FlightAware (Why Join?)
  • Login
  • US Flag 
11:33AM EDT


 

Airport Tracker/Info


-or-


 

Live Flight TrackerFlight Track Log ✈ N53NW ✈ 30-Aug-2013 ✈ KTZR - KPTK

Flight Track Log - Related Links

Times and Time Zones

All times are in EDT time to prevent confusion due to time zone crossing. See the N53NW flight status page for this flight to view local times or setup timezone preferences in your user account.

Time Position Orientation Groundspeed Altitude Reporting Facility
EDT Latitude Longitude Course Direction KTS MPH feet Rate Location/Type
07:59AM 39.8889 -83.1483 212° Southwest 177 204 1,300  Level Indianapolis Center
08:00AM 39.8639 -83.1686 212° Southwest 201 231 2,300 2,340 Climbing Indianapolis Center
08:01AM 39.8258 -83.1969 210° Southwest 217 250 4,200 2,760 Climbing Indianapolis Center
08:02AM 39.8228 -83.2742 267° West 247 284 7,200 2,820 Climbing Indianapolis Center
08:03AM 39.8875 -83.3147 334° Northwest 264 304 10,000 2,460 Climbing Indianapolis Center
08:04AM 39.9603 -83.3431 343° North 276 318 12,300 2,340 Climbing Indianapolis Center
08:05AM 40.0336 -83.3719 343° North 277 319 14,800 2,280 Climbing Indianapolis Center
08:06AM 40.1075 -83.4000 344° North 278 320 17,000 1,020 Climbing Indianapolis Center
08:07AM 40.1925 -83.4333 343° North 317 365 17,000  Level Indianapolis Center
08:08AM 40.2983 -83.4753 343° North 333 383 17,000  Level Indianapolis Center
08:09AM 40.3867 -83.5086 344° North 331 381 17,000  Level Indianapolis Center
08:10AM 40.4739 -83.5436 343° North 330 380 17,000  Level Indianapolis Center
08:11AM 40.5597 -83.5764 344° North 324 373 17,000  Level Indianapolis Center
08:12AM 40.6464 -83.6094 344° North 323 372 17,000  Level Indianapolis Center
08:13AM 40.7319 -83.6447 343° North 323 372 17,000  Level Indianapolis Center
08:14AM 40.8186 -83.6781 344° North 325 374 17,000  Level Indianapolis Center
08:15AM 40.9053 -83.7122 343° North 326 375 17,000  Level Indianapolis Center
08:16AM 41.0092 -83.7542 343° North 325 374 17,000  Level Indianapolis Center
08:17AM 41.0889 -83.7847 344° North 323 372 17,000  Level Indianapolis Center
08:18AM 41.1450 -83.8122 340° North 317 365 17,000  Level Cleveland Center
08:19AM 41.2317 -83.8469 343° North 317 365 17,000  Level Cleveland Center
08:20AM 41.3161 -83.8814 343° North 317 365 17,000 -180 Level Cleveland Center
08:21AM 41.4006 -83.9164 343° North 317 365 16,700 -900 Descending Cleveland Center
08:22AM 41.4853 -83.9483 344° North 317 365 15,200 -1,500 Descending Cleveland Center
08:23AM 41.5675 -83.9831 342° North 317 365 13,700 -1,500 Descending Cleveland Center
08:24AM 41.6481 -84.0125 345° North 311 358 12,200 -1,500 Descending Cleveland Center
08:24AM 41.7119 -84.0408 342° North 300 345 11,100 -1,200 Descending Cleveland Center
08:25AM 41.7922 -84.0731 343° North 295 339 10,100 -600 Descending Cleveland Center
08:26AM 41.8683 -84.1050 343° North 284 327 10,000 -60 Descending Cleveland Center
08:27AM 41.9444 -84.1372 343° North 287 330 10,000  Level Cleveland Center
08:28AM 42.0131 -84.1467 354° North 291 335 10,100 -480 Climbing Cleveland Center
08:29AM 42.0831 -84.1058 23° Northeast 288 331 9,200 -1,440 Descending Cleveland Center
08:30AM 42.1572 -84.0678 21° North 279 321 7,400 -1,800 Descending Cleveland Center
08:31AM 42.2114 -84.0008 42° Northeast 271 312 5,600 -1,140 Descending Cleveland Center
08:32AM 42.2656 -83.9333 43° Northeast 266 306 5,100 -300 Descending Cleveland Center
08:33AM 42.3239 -83.8578 44° Northeast 278 320 5,000 -60 Descending Cleveland Center
08:34AM 42.3800 -83.7878 43° Northeast 268 308 5,000  Level Cleveland Center
08:35AM 42.4342 -83.7172 44° Northeast 261 300 5,000  Level Cleveland Center
08:36AM 42.4881 -83.6494 43° Northeast 268 308 5,000 -840 Level Cleveland Center
08:37AM 42.5422 -83.5733 46° Northeast 264 304 3,300 -1,020 Descending Cleveland Center
08:38AM 42.5550 -83.4836 79° East 239 275 3,000 -180 Descending Cleveland Center
08:39AM 42.5633 -83.3939 83° East 240 276 3,000  Level Cleveland Center
08:40AM 42.5742 -83.2983 81° East 244 281 3,000  Level Cleveland Center
08:41AM 42.5825 -83.2058 83° East 247 284 3,000  Level Cleveland Center
08:43AM 42.6333 -83.1739 25° Northeast 193 222 3,000 -240 Level Cleveland Center
08:44AM 42.6611 -83.2344 302° West 170 196 2,500 -360 Descending Cleveland Center
08:45AM 42.6681 -83.2856 280° West 140 161 2,300 -240 Descending Cleveland Center
08:46AM 42.6669 -83.3336 268° West 124 143 2,100 -420 Descending Cleveland Center
08:47AM 42.6658 -83.3814 268° West 103 119 1,500 -60 Descending Cleveland Center
09:51AM 42.6622 -83.4464 266° West 166 191 1,700  Climbing Cleveland Center
09:51AM 42.6611 -83.4886 268° West 194 223 2,800 2,040 Climbing Cleveland Center
09:53AM 42.7078 -83.5417 320° Northwest 287 330 5,000 1,500 Climbing Cleveland Center
09:54AM 42.7392 -83.4497 65° Northeast 284 327 6,000 1,500 Climbing Cleveland Center
09:54AM 42.7542 -83.3514 78° East 290 334 8,000 2,220 Climbing Cleveland Center
09:55AM 42.7600 -83.2811 84° East 296 341 9,300 2,160 Climbing Cleveland Center
09:56AM 42.7389 -83.1981 109° East 312 359 11,400 1,980 Climbing Cleveland Center
09:57AM 42.6600 -83.1919 177° South 231 266 13,300 1,860 Climbing Cleveland Center
09:58AM 42.5742 -83.2053 187° South 265 305 15,200 1,800 Climbing Cleveland Center
09:59AM 42.4883 -83.2158 185° South 287 330 16,900 1,740 Climbing Cleveland Center
10:00AM 42.3881 -83.2342 188° South 328 377 18,700 1,500 Climbing Cleveland Center
10:01AM 42.3042 -83.2475 187° South 337 388 20,000 1,440 Climbing Cleveland Center
10:02AM 42.2100 -83.2633 187° South 337 388 21,600 1,560 Climbing Cleveland Center
10:03AM 42.1181 -83.2789 187° South 337 388 23,200 1,500 Climbing Cleveland Center
10:04AM 42.0239 -83.2917 186° South 342 394 24,600 1,380 Climbing Cleveland Center
10:05AM 41.9256 -83.3044 186° South 348 400 26,000 1,500 Climbing Cleveland Center
10:06AM 41.8169 -83.3192 186° South 354 407 27,600 1,500 Climbing Cleveland Center
10:07AM 41.7225 -83.3347 187° South 354 407 29,000 1,380 Climbing Cleveland Center
10:08AM 41.6225 -83.3414 183° South 354 407 30,400 1,380 Climbing Cleveland Center